»·PEaware :: N90816 KSAN-KALM

N90816 :: KSAN-KALM

FLIGHT INFORMATION

Flight Status: Arrived
Operator: Privately registered:
United States
More flights under this callsign
Pilot: Christian A. (580)
Aircraft: LOCKHEED L-049/749/1049 CONSTELLATION
(CONI)
More flights by this aircraft type
Origin: KSAN San Diego Intl-Lindbergh
United States
Destination: KALM Alamogordo-White Sands Regl
United States
More flights between these airports :: More routes between these airports
Route: BRDR7 IPL V66 GBN V94 DMN HONER
File this flight plan on PilotEdge
Remarks:
Altitude:
(Current/Filed)
13,000ft
Speed:
(Current/Filed)
221kts
Departed: 03-Aug-18 11:14 AM
Arrived: 03-Aug-18 01:43 PM
Distance/Time
Traveled:
564nm/2:28
Distance/Time
To Go:
Arrived

Flight Plot

Page will automatically refresh every two minutes.

Flight plan parsing failed; only flown route is shown


Map Options




Map Legend


Flown Route
Filed Route
Departure Airport
Arrival Airport
Navaid (VOR, NDB)
Fix

Horizontal Profiles

Position Reports

Time Latitude Longitude Heading Altitude Ground
Speed
03-Aug-18 11:00 32.734570 -117.179520 160 25ft 0kts
03-Aug-18 11:01 32.734570 -117.179520 160 25ft 0kts
03-Aug-18 11:02 32.734570 -117.179520 160 25ft 0kts
03-Aug-18 11:03 32.734570 -117.179520 160 25ft 0kts
03-Aug-18 11:04 32.734570 -117.179520 160 25ft 0kts
03-Aug-18 11:05 32.734570 -117.179520 160 25ft 0kts
03-Aug-18 11:06 32.734570 -117.179520 160 25ft 0kts
03-Aug-18 11:07 32.734570 -117.179520 160 25ft 0kts
03-Aug-18 11:08 32.734569 -117.179519 159 25ft 0kts
03-Aug-18 11:09 32.734568 -117.179519 159 25ft 0kts
03-Aug-18 11:10 32.734567 -117.179518 159 25ft 0kts
03-Aug-18 11:11 32.734183 -117.179381 174 25ft 12kts
03-Aug-18 11:12 32.731765 -117.177504 106 25ft 20kts
03-Aug-18 11:13 32.731290 -117.175807 131 25ft 0kts
03-Aug-18 11:14 32.730389 -117.176658 286 25ft 29kts
03-Aug-18 11:15 32.738163 -117.208470 285 438ft 136kts
03-Aug-18 11:16 32.747443 -117.249137 289 1983ft 129kts
03-Aug-18 11:17 32.761084 -117.292063 289 2813ft 147kts
03-Aug-18 11:18 32.750795 -117.329664 179 3600ft 148kts
03-Aug-18 11:19 32.718061 -117.299128 134 4318ft 157kts
03-Aug-18 11:20 32.686579 -117.260782 134 5031ft 166kts
03-Aug-18 11:21 32.653094 -117.220227 134 5747ft 179kts
03-Aug-18 11:22 32.618353 -117.178257 134 6443ft 177kts
03-Aug-18 11:23 32.608884 -117.125715 77 7141ft 174kts
03-Aug-18 11:24 32.616804 -117.068455 90 7844ft 177kts
03-Aug-18 11:25 32.613569 -117.010432 96 8575ft 179kts
03-Aug-18 11:26 32.613418 -116.948835 79 9255ft 188kts
03-Aug-18 11:27 32.619444 -116.888338 81 9948ft 182kts
03-Aug-18 11:28 32.625913 -116.828665 83 10598ft 184kts
03-Aug-18 11:29 32.632311 -116.767005 82 11197ft 189kts
03-Aug-18 11:30 32.638537 -116.707039 83 11776ft 191kts
03-Aug-18 11:31 32.645089 -116.643883 83 12370ft 193kts
03-Aug-18 11:32 32.651512 -116.580765 82 12987ft 195kts
03-Aug-18 11:33 32.658721 -116.511629 82 13057ft 220kts
03-Aug-18 11:34 32.666168 -116.438822 85 13078ft 226kts
03-Aug-18 11:35 32.679470 -116.363333 72 13059ft 236kts
03-Aug-18 11:36 32.697122 -116.287054 78 13047ft 241kts
03-Aug-18 11:37 32.705447 -116.207205 85 13019ft 244kts
03-Aug-18 11:38 32.712282 -116.126987 80 13011ft 248kts
03-Aug-18 11:39 32.721266 -116.044086 87 12980ft 253kts
03-Aug-18 11:40 32.723623 -115.962458 88 12942ft 251kts
03-Aug-18 11:41 32.725352 -115.879990 90 12939ft 252kts
03-Aug-18 11:42 32.725184 -115.795344 89 12920ft 258kts
03-Aug-18 11:43 32.729881 -115.709763 83 12915ft 263kts
03-Aug-18 11:44 32.739701 -115.622739 82 12891ft 264kts
03-Aug-18 11:45 32.748397 -115.537038 85 12881ft 259kts
03-Aug-18 11:46 32.752371 -115.452140 88 12885ft 255kts
03-Aug-18 11:47 32.753561 -115.369567 87 13000ft 251kts
03-Aug-18 11:48 32.757447 -115.285571 87 12993ft 253kts
03-Aug-18 11:49 32.760862 -115.202520 88 12993ft 249kts
03-Aug-18 11:50 32.763260 -115.120623 89 12999ft 247kts
03-Aug-18 11:51 32.764417 -115.038516 90 12994ft 247kts
03-Aug-18 11:52 32.765166 -114.957509 90 12995ft 244kts
03-Aug-18 11:53 32.765984 -114.877017 90 12995ft 242kts
03-Aug-18 11:54 32.766853 -114.797658 90 13003ft 241kts
03-Aug-18 11:55 32.767698 -114.717231 90 12997ft 242kts
03-Aug-18 11:56 32.767630 -114.637535 90 13014ft 244kts
03-Aug-18 11:57 32.769093 -114.555144 89 13013ft 252kts
03-Aug-18 11:58 32.770210 -114.470440 89 12998ft 254kts
03-Aug-18 11:59 32.771321 -114.386933 89 12999ft 251kts
03-Aug-18 12:00 32.772523 -114.304615 89 13000ft 247kts
03-Aug-18 12:01 32.773845 -114.223184 89 13017ft 249kts
03-Aug-18 12:02 32.775203 -114.139439 89 12995ft 255kts
03-Aug-18 12:03 32.776589 -114.054920 89 12988ft 254kts
03-Aug-18 12:04 32.778031 -113.971301 89 12990ft 251kts
03-Aug-18 12:05 32.781978 -113.888806 78 13008ft 253kts
03-Aug-18 12:06 32.799449 -113.806491 75 12991ft 256kts
03-Aug-18 12:07 32.817464 -113.725150 76 12994ft 252kts
03-Aug-18 12:08 32.833337 -113.644346 77 13011ft 253kts
03-Aug-18 12:09 32.849230 -113.561615 77 12999ft 255kts
03-Aug-18 12:10 32.861270 -113.478944 81 13013ft 251kts
03-Aug-18 12:11 32.872096 -113.397368 82 13023ft 252kts
03-Aug-18 12:12 32.880047 -113.313927 84 13029ft 256kts
03-Aug-18 12:13 32.887568 -113.228543 84 13018ft 258kts
03-Aug-18 12:14 32.894964 -113.144282 84 13027ft 255kts
03-Aug-18 12:15 32.903106 -113.060269 83 13031ft 255kts
03-Aug-18 12:16 32.911618 -112.976454 83 13025ft 253kts
03-Aug-18 12:17 32.920906 -112.893671 80 13024ft 250kts
03-Aug-18 12:18 32.933714 -112.812640 78 13037ft 251kts
03-Aug-18 12:19 32.951768 -112.731393 74 13028ft 252kts
03-Aug-18 12:20 32.962433 -112.649961 93 13038ft 251kts
03-Aug-18 12:21 32.952569 -112.567247 105 13017ft 252kts
03-Aug-18 12:22 32.939991 -112.485470 98 13028ft 255kts
03-Aug-18 12:23 32.931447 -112.400439 96 13022ft 259kts
03-Aug-18 12:24 32.923984 -112.314605 96 13040ft 262kts
03-Aug-18 12:25 32.916506 -112.227793 96 13033ft 261kts
03-Aug-18 12:26 32.909206 -112.142355 96 13036ft 257kts
03-Aug-18 12:27 32.900532 -112.058477 98 13051ft 258kts
03-Aug-18 12:28 32.890718 -111.972457 98 13048ft 264kts
03-Aug-18 12:29 32.879678 -111.885467 104 13039ft 263kts
03-Aug-18 12:30 32.861069 -111.801914 104 13053ft 264kts
03-Aug-18 12:31 32.843232 -111.716278 105 13054ft 268kts
03-Aug-18 12:32 32.823269 -111.630785 106 13045ft 266kts
03-Aug-18 12:33 32.806814 -111.560788 106 13052ft 262kts
03-Aug-18 12:34 32.784099 -111.464139 106 13067ft 259kts
03-Aug-18 12:35 32.767907 -111.395186 106 13086ft 259kts
03-Aug-18 12:36 32.744849 -111.297094 106 13072ft 264kts
03-Aug-18 12:37 32.728444 -111.227221 105 13093ft 262kts
03-Aug-18 12:38 32.705472 -111.128372 104 13099ft 264kts
03-Aug-18 12:39 32.690069 -111.058563 104 13113ft 260kts
03-Aug-18 12:40 32.671692 -110.974952 104 13127ft 262kts
03-Aug-18 12:41 32.651691 -110.878282 103 13121ft 267kts
03-Aug-18 12:42 32.637139 -110.807272 103 13150ft 265kts
03-Aug-18 12:43 32.619430 -110.721188 104 13144ft 268kts
03-Aug-18 12:44 32.600687 -110.635404 104 13156ft 268kts
03-Aug-18 12:45 32.581437 -110.547947 104 13027ft 275kts
03-Aug-18 12:46 32.562016 -110.459797 104 13006ft 273kts
03-Aug-18 12:47 32.543100 -110.373850 104 13012ft 267kts
03-Aug-18 12:48 32.524320 -110.288534 104 13007ft 267kts
03-Aug-18 12:49 32.505375 -110.202367 104 12992ft 268kts
03-Aug-18 12:50 32.484995 -110.118211 107 13003ft 264kts
03-Aug-18 12:51 32.462977 -110.034539 107 13014ft 266kts
03-Aug-18 12:52 32.439922 -109.950243 109 13029ft 267kts
03-Aug-18 12:53 32.415264 -109.867150 109 13041ft 265kts
03-Aug-18 12:54 32.390978 -109.785473 109 13041ft 261kts
03-Aug-18 12:55 32.367073 -109.705007 109 13043ft 257kts
03-Aug-18 12:56 32.344023 -109.625242 106 13042ft 255kts
03-Aug-18 12:57 32.325961 -109.544353 104 13047ft 254kts
03-Aug-18 12:58 32.311455 -109.461744 98 13039ft 255kts
03-Aug-18 12:59 32.299909 -109.379401 102 13057ft 253kts
03-Aug-18 13:00 32.282077 -109.297912 105 13054ft 255kts
03-Aug-18 13:01 32.274856 -109.215722 86 13055ft 252kts
03-Aug-18 13:02 32.276071 -109.133516 89 13081ft 251kts
03-Aug-18 13:03 32.274217 -109.049290 91 13086ft 256kts
03-Aug-18 13:04 32.271977 -108.963999 91 13087ft 259kts
03-Aug-18 13:05 32.271737 -108.876662 87 12947ft 267kts
03-Aug-18 13:06 32.274472 -108.787767 87 12947ft 270kts
03-Aug-18 13:07 32.277293 -108.698181 87 12938ft 272kts
03-Aug-18 13:08 32.279967 -108.609056 87 12943ft 270kts
03-Aug-18 13:09 32.280817 -108.520489 88 12950ft 267kts
03-Aug-18 13:10 32.280863 -108.433007 89 12967ft 266kts
03-Aug-18 13:11 32.281059 -108.344544 88 12964ft 269kts
03-Aug-18 13:12 32.280603 -108.255026 89 12958ft 272kts
03-Aug-18 13:13 32.279713 -108.165097 89 12965ft 273kts
03-Aug-18 13:14 32.277964 -108.074818 90 12961ft 274kts
03-Aug-18 13:15 32.275790 -107.984981 90 13125ft 267kts
03-Aug-18 13:16 32.274001 -107.899188 89 13314ft 255kts
03-Aug-18 13:17 32.273259 -107.816653 89 13408ft 248kts
03-Aug-18 13:18 32.272499 -107.735593 89 13410ft 246kts
03-Aug-18 13:19 32.271933 -107.653816 89 13418ft 250kts
03-Aug-18 13:20 32.272749 -107.569853 80 13420ft 256kts
03-Aug-18 13:21 32.295212 -107.489014 64 13427ft 259kts
03-Aug-18 13:22 32.322969 -107.408685 67 13002ft 266kts
03-Aug-18 13:23 32.349593 -107.326352 67 12490ft 267kts
03-Aug-18 13:24 32.374979 -107.243640 69 11977ft 264kts
03-Aug-18 13:25 32.398483 -107.161616 69 11503ft 265kts
03-Aug-18 13:26 32.423211 -107.076791 69 10983ft 273kts
03-Aug-18 13:27 32.448235 -106.991766 69 10502ft 275kts
03-Aug-18 13:28 32.473854 -106.905597 69 9991ft 274kts
03-Aug-18 13:29 32.499011 -106.821592 69 9493ft 266kts
03-Aug-18 13:30 32.523157 -106.741490 69 9418ft 247kts
03-Aug-18 13:31 32.545518 -106.667088 69 9414ft 233kts
03-Aug-18 13:32 32.566977 -106.595410 69 9333ft 231kts
03-Aug-18 13:33 32.589132 -106.522331 68 8737ft 236kts
03-Aug-18 13:34 32.612034 -106.450682 68 8244ft 230kts
03-Aug-18 13:35 32.634937 -106.378735 68 7721ft 229kts
03-Aug-18 13:36 32.657100 -106.309034 68 7217ft 222kts
03-Aug-18 13:37 32.678661 -106.241273 68 6736ft 218kts
03-Aug-18 13:38 32.700399 -106.173203 67 6213ft 215kts
03-Aug-18 13:39 32.732381 -106.116741 41 5806ft 199kts
03-Aug-18 13:40 32.769285 -106.076105 45 5792ft 148kts
03-Aug-18 13:41 32.793839 -106.045222 41 5253ft 123kts
03-Aug-18 13:42 32.817752 -106.017402 46 4608ft 119kts
03-Aug-18 13:43 32.838453 -105.992389 46 4210ft 65kts
03-Aug-18 13:44 32.840011 -105.991667 225 4210ft 20kts
03-Aug-18 13:45 32.838825 -105.994622 331 4210ft 12kts
03-Aug-18 13:46 32.839202 -105.994446 93 4210ft 0kts
03-Aug-18 13:47 32.839202 -105.994446 93 4210ft 0kts
03-Aug-18 13:48 32.839202 -105.994446 93 4210ft 0kts
03-Aug-18 13:49 32.839202 -105.994446 93 4210ft 0kts
03-Aug-18 13:50 32.839202 -105.994446 93 4210ft 0kts

Navigation Log

Ident Type
Flight plan parsing failed, navigation log unavailable